createdAt,value
2018-07-22T00:00:30.960Z,50
2018-07-22T00:01:33.244Z,50
2018-07-22T00:02:35.251Z,50
2018-07-22T00:03:37.644Z,50
2018-07-22T00:04:39.648Z,50
2018-07-22T00:05:41.646Z,51
2018-07-22T00:06:43.922Z,51
2018-07-22T00:07:45.921Z,51
2018-07-22T00:08:47.930Z,51
2018-07-22T00:09:49.922Z,51
2018-07-22T00:10:51.931Z,51
2018-07-22T00:11:53.935Z,51
2018-07-22T00:12:55.934Z,51
2018-07-22T00:13:57.955Z,51
2018-07-22T00:14:59.946Z,51
2018-07-22T00:16:02.235Z,51
2018-07-22T00:17:04.227Z,51
2018-07-22T00:18:06.817Z,51
2018-07-22T00:19:08.812Z,51
2018-07-22T00:20:11.193Z,52
2018-07-22T00:21:13.203Z,52
2018-07-22T00:22:15.498Z,52
2018-07-22T00:23:17.511Z,52
2018-07-22T00:24:19.519Z,52
2018-07-22T00:25:21.914Z,52
2018-07-22T00:26:23.905Z,52
2018-07-22T00:27:25.908Z,52
2018-07-22T00:28:27.910Z,52
2018-07-22T00:29:29.903Z,52
2018-07-22T00:30:31.911Z,52
2018-07-22T00:31:33.907Z,52
2018-07-22T00:32:35.902Z,52
2018-07-22T00:33:37.916Z,52
2018-07-22T00:34:39.914Z,52
2018-07-22T00:35:41.908Z,53
2018-07-22T00:36:43.910Z,53
2018-07-22T00:37:45.906Z,53
2018-07-22T00:38:47.914Z,53
2018-07-22T00:39:50.304Z,53
2018-07-22T00:40:52.315Z,53
2018-07-22T00:41:54.304Z,53
2018-07-22T00:42:56.697Z,53
2018-07-22T00:43:58.693Z,53
2018-07-22T00:45:00.696Z,53
2018-07-22T00:46:03.355Z,53
2018-07-22T00:47:05.647Z,53
2018-07-22T00:48:07.926Z,53
2018-07-22T00:49:09.932Z,54
2018-07-22T00:50:12.207Z,54
2018-07-22T00:51:14.889Z,54
2018-07-22T00:52:16.885Z,54
2018-07-22T00:53:18.885Z,54
2018-07-22T00:54:20.895Z,54
2018-07-22T00:55:22.887Z,54
2018-07-22T00:56:25.757Z,54
2018-07-22T00:57:27.762Z,54
2018-07-22T00:58:30.161Z,54
2018-07-22T00:59:32.150Z,54
2018-07-22T01:00:34.190Z,54
2018-07-22T01:01:36.160Z,54
2018-07-22T01:02:38.159Z,54
2018-07-22T01:03:40.173Z,54
2018-07-22T01:04:42.167Z,54
2018-07-22T01:05:44.164Z,55
2018-07-22T01:06:46.184Z,55
2018-07-22T01:07:48.460Z,55
2018-07-22T01:08:50.456Z,55
2018-07-22T01:09:52.741Z,55
2018-07-22T01:10:54.738Z,55
2018-07-22T01:11:56.747Z,55
2018-07-22T01:12:59.350Z,55
2018-07-22T01:14:01.352Z,55
2018-07-22T01:15:03.346Z,55
2018-07-22T01:16:05.355Z,55
2018-07-22T01:17:07.351Z,55
2018-07-22T01:18:09.353Z,55
2018-07-22T01:19:11.359Z,55
2018-07-22T01:20:13.640Z,56
2018-07-22T01:21:15.641Z,56
2018-07-22T01:22:18.020Z,56
2018-07-22T01:23:20.032Z,56
2018-07-22T01:24:22.314Z,56
2018-07-22T01:25:24.316Z,56
2018-07-22T01:26:26.314Z,56
2018-07-22T01:27:28.314Z,56
2018-07-22T01:28:30.303Z,56
2018-07-22T01:29:32.312Z,56
2018-07-22T01:30:34.606Z,56
2018-07-22T01:31:37.381Z,56
2018-07-22T01:32:39.373Z,56
2018-07-22T01:33:41.376Z,56
2018-07-22T01:34:43.384Z,56
2018-07-22T01:35:45.761Z,56
2018-07-22T01:36:47.772Z,56
2018-07-22T01:37:49.769Z,56
2018-07-22T01:38:52.048Z,56
2018-07-22T01:39:54.053Z,56
2018-07-22T01:40:56.049Z,56
2018-07-22T01:41:58.048Z,56
2018-07-22T01:43:00.051Z,57
2018-07-22T01:44:02.048Z,57
2018-07-22T01:45:04.055Z,57
2018-07-22T01:46:06.065Z,57
2018-07-22T01:47:08.731Z,57
2018-07-22T01:48:10.720Z,57
2018-07-22T01:49:12.734Z,57
2018-07-22T01:50:14.726Z,57
2018-07-22T01:51:16.725Z,57
2018-07-22T01:52:18.731Z,57
2018-07-22T01:53:20.719Z,57
2018-07-22T01:54:22.725Z,57
2018-07-22T01:55:24.718Z,57
2018-07-22T01:56:26.731Z,57
2018-07-22T01:57:28.726Z,57
2018-07-22T01:58:30.731Z,57
2018-07-22T01:59:32.735Z,57
2018-07-22T02:00:34.729Z,57
2018-07-22T02:01:36.778Z,57
2018-07-22T02:02:39.022Z,57
2018-07-22T02:03:41.031Z,57
2018-07-22T02:04:43.037Z,57
2018-07-22T02:05:45.026Z,57
2018-07-22T02:06:47.312Z,57
2018-07-22T02:07:49.310Z,57
2018-07-22T02:08:51.593Z,58
2018-07-22T02:09:53.886Z,58
2018-07-22T02:10:55.881Z,58
2018-07-22T02:11:57.878Z,58
2018-07-22T02:12:59.889Z,58
2018-07-22T02:14:01.886Z,58
2018-07-22T02:15:04.266Z,58
2018-07-22T02:16:06.269Z,58
2018-07-22T02:17:08.264Z,58
2018-07-22T02:18:10.553Z,58
2018-07-22T02:19:12.559Z,58
2018-07-22T02:20:14.566Z,58
2018-07-22T02:21:16.939Z,58
2018-07-22T02:22:18.950Z,58
2018-07-22T02:23:21.246Z,58
2018-07-22T02:24:23.245Z,58
2018-07-22T02:25:25.250Z,58
2018-07-22T02:26:27.238Z,58
2018-07-22T02:27:29.242Z,58
2018-07-22T02:28:31.517Z,58
2018-07-22T02:29:33.528Z,58
2018-07-22T02:30:35.519Z,58
2018-07-22T02:31:37.524Z,58
2018-07-22T02:32:40.197Z,58
2018-07-22T02:33:42.476Z,58
2018-07-22T02:34:44.485Z,58
2018-07-22T02:35:46.780Z,58
2018-07-22T02:36:48.775Z,58
2018-07-22T02:37:51.062Z,58
2018-07-22T02:38:53.356Z,58
2018-07-22T02:39:55.918Z,58
2018-07-22T02:40:58.589Z,58
2018-07-22T02:42:00.874Z,59
2018-07-22T02:43:03.164Z,59
2018-07-22T02:44:05.736Z,59
2018-07-22T02:45:08.037Z,59
2018-07-22T02:46:10.030Z,59
2018-07-22T02:47:12.420Z,59
2018-07-22T02:48:14.432Z,59
2018-07-22T02:49:17.285Z,59
2018-07-22T02:50:19.851Z,59
2018-07-22T02:51:21.851Z,59
2018-07-22T02:52:24.119Z,59
2018-07-22T02:53:26.116Z,59
2018-07-22T02:54:28.691Z,59
2018-07-22T02:55:30.689Z,59
2018-07-22T02:56:32.687Z,59
2018-07-22T02:57:34.688Z,59
2018-07-22T02:58:36.965Z,59
2018-07-22T02:59:39.644Z,59
2018-07-22T03:00:41.639Z,59
2018-07-22T03:01:43.649Z,59
2018-07-22T03:02:45.643Z,59
2018-07-22T03:03:48.218Z,59
2018-07-22T03:04:50.607Z,59
2018-07-22T03:05:52.597Z,59
2018-07-22T03:06:54.993Z,59
2018-07-22T03:07:57.549Z,59
2018-07-22T03:08:59.832Z,59
2018-07-22T03:10:02.434Z,59
2018-07-22T03:11:04.419Z,59
2018-07-22T03:12:06.800Z,59
2018-07-22T03:13:09.089Z,59
2018-07-22T03:14:11.093Z,59
2018-07-22T03:15:13.369Z,59
2018-07-22T03:16:15.683Z,59
2018-07-22T03:17:18.240Z,59
2018-07-22T03:18:20.263Z,59
2018-07-22T03:19:22.513Z,59
2018-07-22T03:20:24.802Z,59
2018-07-22T03:21:26.806Z,59
2018-07-22T03:22:29.086Z,59
2018-07-22T03:23:32.047Z,59
2018-07-22T03:24:34.329Z,59
2018-07-22T03:25:36.607Z,59
2018-07-22T03:26:38.606Z,59
2018-07-22T03:27:40.999Z,59
2018-07-22T03:28:42.991Z,59
2018-07-22T03:29:44.995Z,59
2018-07-22T03:30:47.956Z,59
2018-07-22T03:31:50.238Z,59
2018-07-22T03:32:52.248Z,59
2018-07-22T03:33:54.627Z,60
2018-07-22T03:34:56.639Z,60
2018-07-22T03:35:58.625Z,59
2018-07-22T03:37:00.638Z,59
2018-07-22T03:38:02.635Z,59
2018-07-22T03:39:04.630Z,60
2018-07-22T03:40:06.637Z,60
2018-07-22T03:41:08.909Z,60
2018-07-22T03:42:10.912Z,60
2018-07-22T03:43:12.924Z,60
2018-07-22T03:44:14.932Z,60
2018-07-22T03:45:17.313Z,60
2018-07-22T03:46:19.314Z,60
2018-07-22T03:47:21.318Z,60
2018-07-22T03:48:23.309Z,60
2018-07-22T03:49:25.340Z,60
2018-07-22T03:50:27.323Z,60
2018-07-22T03:51:29.317Z,60
2018-07-22T03:52:31.329Z,60
2018-07-22T03:53:33.332Z,60
2018-07-22T03:54:35.326Z,60
2018-07-22T03:55:37.321Z,60
2018-07-22T03:56:39.330Z,60
2018-07-22T03:57:41.328Z,60
2018-07-22T03:58:43.605Z,60
2018-07-22T03:59:45.599Z,60
2018-07-22T04:00:47.608Z,60
2018-07-22T04:01:49.601Z,60
2018-07-22T04:02:51.607Z,60
2018-07-22T04:03:54.273Z,60
2018-07-22T04:04:56.265Z,60
2018-07-22T04:05:58.280Z,60
2018-07-22T04:07:00.286Z,60
2018-07-22T04:08:02.276Z,60
2018-07-22T04:09:04.269Z,60
2018-07-22T04:10:06.565Z,60
2018-07-22T04:11:08.557Z,60
2018-07-22T04:12:10.554Z,60
2018-07-22T04:13:12.563Z,60
2018-07-22T04:14:14.551Z,60
2018-07-22T04:15:16.559Z,60
2018-07-22T04:16:18.566Z,61
2018-07-22T04:17:21.340Z,60
2018-07-22T04:18:23.329Z,60
2018-07-22T04:19:25.334Z,61
2018-07-22T04:20:27.335Z,60
2018-07-22T04:21:29.360Z,60
2018-07-22T04:22:31.344Z,60
2018-07-22T04:23:33.339Z,60
2018-07-22T04:24:35.335Z,60
2018-07-22T04:25:37.345Z,60
2018-07-22T04:26:39.352Z,60
2018-07-22T04:27:41.336Z,60
2018-07-22T04:28:44.023Z,60
2018-07-22T04:29:46.015Z,60
2018-07-22T04:30:48.018Z,60
2018-07-22T04:31:50.025Z,60
2018-07-22T04:32:52.031Z,61
2018-07-22T04:33:54.037Z,61
2018-07-22T04:34:56.029Z,61
2018-07-22T04:35:58.032Z,61
2018-07-22T04:37:00.315Z,61
2018-07-22T04:38:02.310Z,61
2018-07-22T04:39:04.322Z,61
2018-07-22T04:40:06.319Z,61
2018-07-22T04:41:08.328Z,61
2018-07-22T04:42:10.312Z,61
2018-07-22T04:43:12.320Z,61
2018-07-22T04:44:14.315Z,61
2018-07-22T04:45:16.313Z,61
2018-07-22T04:46:18.313Z,61
2018-07-22T04:47:20.301Z,61
2018-07-22T04:48:22.310Z,61
2018-07-22T04:49:24.315Z,61
2018-07-22T04:50:26.319Z,60
2018-07-22T04:51:28.309Z,61
2018-07-22T04:52:30.314Z,61
2018-07-22T04:53:32.731Z,61
2018-07-22T04:54:35.031Z,60
2018-07-22T04:55:37.040Z,61
2018-07-22T04:56:39.319Z,60
2018-07-22T04:57:41.313Z,60
2018-07-22T04:58:43.326Z,60
2018-07-22T04:59:45.318Z,60
2018-07-22T05:00:47.614Z,60
2018-07-22T05:01:50.386Z,61
2018-07-22T05:02:52.942Z,61
2018-07-22T05:03:54.953Z,61
2018-07-22T05:04:56.956Z,61
2018-07-22T05:05:58.964Z,61
2018-07-22T05:07:00.955Z,61
2018-07-22T05:08:02.968Z,61
2018-07-22T05:09:04.970Z,61
2018-07-22T05:10:07.246Z,61
2018-07-22T05:11:09.636Z,61
2018-07-22T05:12:11.629Z,61
2018-07-22T05:13:13.914Z,61
2018-07-22T05:14:15.911Z,61
2018-07-22T05:15:18.198Z,61
2018-07-22T05:16:20.850Z,61
2018-07-22T05:17:23.141Z,61
2018-07-22T05:18:25.142Z,60
2018-07-22T05:19:27.424Z,60
2018-07-22T05:20:29.713Z,60
2018-07-22T05:21:31.703Z,60
2018-07-22T05:22:33.702Z,60
2018-07-22T05:23:35.700Z,60
2018-07-22T05:24:38.040Z,60
2018-07-22T05:25:39.990Z,60
2018-07-22T05:26:42.270Z,60
2018-07-22T05:27:44.279Z,59
2018-07-22T05:28:46.264Z,59
2018-07-22T05:29:48.575Z,59
2018-07-22T05:30:50.582Z,59
2018-07-22T05:31:52.852Z,59
2018-07-22T05:32:54.856Z,59
2018-07-22T05:33:56.864Z,59
2018-07-22T05:34:58.864Z,59
2018-07-22T05:36:00.918Z,59
2018-07-22T05:37:03.200Z,59
2018-07-22T05:38:05.194Z,59
2018-07-22T05:39:07.190Z,59
2018-07-22T05:40:09.202Z,59
2018-07-22T05:41:11.193Z,59
2018-07-22T05:42:13.252Z,59
2018-07-22T05:43:15.200Z,58
2018-07-22T05:44:17.199Z,58
2018-07-22T05:45:19.594Z,58
2018-07-22T05:46:21.589Z,58
2018-07-22T05:47:23.876Z,58
2018-07-22T05:48:25.868Z,57
2018-07-22T05:49:27.875Z,57
2018-07-22T05:50:29.879Z,57
2018-07-22T05:51:32.165Z,58
2018-07-22T05:52:34.165Z,57
2018-07-22T05:53:36.569Z,57
2018-07-22T05:54:38.563Z,57
2018-07-22T05:55:40.557Z,57
2018-07-22T05:56:42.553Z,57
2018-07-22T05:57:44.563Z,57
2018-07-22T05:58:46.556Z,57
2018-07-22T05:59:48.562Z,57
2018-07-22T06:00:50.562Z,57
2018-07-22T06:01:52.551Z,57
2018-07-22T06:02:54.942Z,57
2018-07-22T06:03:56.950Z,56
2018-07-22T06:04:58.943Z,56
2018-07-22T06:06:01.637Z,57
2018-07-22T06:07:03.644Z,56
2018-07-22T06:08:05.642Z,56
2018-07-22T06:09:07.647Z,57
2018-07-22T06:10:09.646Z,57
2018-07-22T06:11:11.919Z,57
2018-07-22T06:12:14.337Z,57
2018-07-22T06:13:16.353Z,57
2018-07-22T06:14:18.343Z,56
2018-07-22T06:15:20.352Z,56
2018-07-22T06:16:22.355Z,57
2018-07-22T06:17:24.355Z,57
2018-07-22T06:18:26.365Z,56
2018-07-22T06:19:28.362Z,56
2018-07-22T06:20:30.375Z,57
2018-07-22T06:21:32.363Z,56
2018-07-22T06:22:34.381Z,56
2018-07-22T06:23:36.375Z,56
2018-07-22T06:24:38.371Z,56
2018-07-22T06:25:40.380Z,56
2018-07-22T06:26:42.375Z,57
2018-07-22T06:27:45.044Z,56
2018-07-22T06:28:47.600Z,56
2018-07-22T06:29:49.599Z,56
2018-07-22T06:30:51.613Z,56
2018-07-22T06:31:54.000Z,56
2018-07-22T06:32:55.998Z,56
2018-07-22T06:33:58.011Z,56
2018-07-22T06:34:59.999Z,56
2018-07-22T06:36:02.009Z,56
2018-07-22T06:37:04.018Z,56
2018-07-22T06:38:06.013Z,56
2018-07-22T06:39:08.605Z,56
2018-07-22T06:40:10.612Z,56
2018-07-22T06:41:13.052Z,56
2018-07-22T06:42:14.997Z,56
2018-07-22T06:43:17.382Z,56
2018-07-22T06:44:19.385Z,56
2018-07-22T06:45:21.772Z,56
2018-07-22T06:46:23.778Z,56
2018-07-22T06:47:25.773Z,56
2018-07-22T06:48:27.782Z,56
2018-07-22T06:49:29.784Z,57
2018-07-22T06:50:31.781Z,56
2018-07-22T06:51:33.795Z,56
2018-07-22T06:52:35.794Z,56
2018-07-22T06:53:37.856Z,56
2018-07-22T06:54:39.794Z,56
2018-07-22T06:55:41.809Z,56
2018-07-22T06:56:44.387Z,56
2018-07-22T06:57:46.382Z,56
2018-07-22T06:58:48.390Z,55
2018-07-22T06:59:50.384Z,56
2018-07-22T07:00:52.457Z,56
2018-07-22T07:01:54.402Z,55
2018-07-22T07:02:56.699Z,56
2018-07-22T07:03:58.687Z,54
2018-07-22T07:05:01.018Z,54
2018-07-22T07:06:03.017Z,55
2018-07-22T07:07:05.022Z,55
2018-07-22T07:08:07.013Z,55
2018-07-22T07:09:09.019Z,55
2018-07-22T07:10:11.026Z,54
2018-07-22T07:11:13.022Z,54
2018-07-22T07:12:15.034Z,54
2018-07-22T07:13:17.036Z,54
2018-07-22T07:14:19.039Z,54
2018-07-22T07:15:21.052Z,54
2018-07-22T07:16:23.428Z,54
2018-07-22T07:17:25.817Z,54
2018-07-22T07:18:27.807Z,54
2018-07-22T07:19:29.822Z,54
2018-07-22T07:20:31.816Z,54
2018-07-22T07:21:34.109Z,54
2018-07-22T07:22:36.116Z,54
2018-07-22T07:23:38.404Z,54
2018-07-22T07:24:40.415Z,54
2018-07-22T07:25:42.419Z,54
2018-07-22T07:26:44.461Z,54
2018-07-22T07:27:46.421Z,54
2018-07-22T07:28:48.722Z,54
2018-07-22T07:29:51.102Z,53
2018-07-22T07:30:53.100Z,53
2018-07-22T07:31:55.106Z,54
2018-07-22T07:32:57.103Z,53
2018-07-22T07:33:59.112Z,53
2018-07-22T07:35:01.122Z,54
2018-07-22T07:36:03.131Z,54
2018-07-22T07:37:05.510Z,53
2018-07-22T07:38:08.190Z,54
2018-07-22T07:39:10.193Z,54
2018-07-22T07:40:12.578Z,54
2018-07-22T07:41:14.592Z,54
2018-07-22T07:42:16.634Z,54
2018-07-22T07:43:18.593Z,54
2018-07-22T07:44:20.611Z,53
2018-07-22T07:45:22.610Z,54
2018-07-22T07:46:24.610Z,53
2018-07-22T07:47:26.905Z,53
2018-07-22T07:48:29.215Z,53
2018-07-22T07:49:31.226Z,54
2018-07-22T07:50:33.239Z,54
2018-07-22T07:51:35.252Z,53
2018-07-22T07:52:37.248Z,53
2018-07-22T07:53:39.262Z,53
2018-07-22T07:54:41.649Z,53
2018-07-22T07:55:43.657Z,53
2018-07-22T07:56:45.663Z,52
2018-07-22T07:57:47.945Z,53
2018-07-22T07:58:49.956Z,53
2018-07-22T07:59:52.234Z,52
2018-07-22T08:00:54.247Z,52
2018-07-22T08:01:56.243Z,52
2018-07-22T08:02:58.261Z,52
2018-07-22T08:04:00.277Z,52
2018-07-22T08:05:02.553Z,52
2018-07-22T08:06:04.572Z,52
2018-07-22T08:07:06.576Z,53
2018-07-22T08:08:08.957Z,52
2018-07-22T08:09:10.955Z,51
2018-07-22T08:10:13.254Z,52
2018-07-22T08:11:15.254Z,51
2018-07-22T08:12:17.262Z,51
2018-07-22T08:13:19.570Z,52
2018-07-22T08:14:21.565Z,52
2018-07-22T08:15:23.578Z,51
2018-07-22T08:16:25.596Z,51
2018-07-22T08:17:27.598Z,51
2018-07-22T08:18:30.268Z,51
2018-07-22T08:19:32.668Z,51
2018-07-22T08:20:34.681Z,50
2018-07-22T08:21:36.751Z,50
2018-07-22T08:22:38.975Z,49
2018-07-22T08:23:40.987Z,50
2018-07-22T08:24:42.997Z,50
2018-07-22T08:25:44.994Z,50
2018-07-22T08:26:47.013Z,49
2018-07-22T08:27:49.016Z,50
2018-07-22T08:28:51.025Z,49
2018-07-22T08:29:53.030Z,49
2018-07-22T08:30:55.027Z,49
2018-07-22T08:31:57.041Z,49
2018-07-22T08:32:59.723Z,49
2018-07-22T08:34:01.744Z,49
2018-07-22T08:35:04.123Z,49
2018-07-22T08:36:06.412Z,49
2018-07-22T08:37:08.420Z,49
2018-07-22T08:38:10.421Z,49
2018-07-22T08:39:12.438Z,49
2018-07-22T08:40:14.439Z,49
2018-07-22T08:41:16.476Z,49
2018-07-22T08:42:18.828Z,49
2018-07-22T08:43:20.843Z,50
2018-07-22T08:44:22.844Z,49
2018-07-22T08:45:24.849Z,50
2018-07-22T08:46:26.862Z,49
2018-07-22T08:47:28.858Z,49
2018-07-22T08:48:30.870Z,49
2018-07-22T08:49:32.882Z,49
2018-07-22T08:50:34.880Z,49
2018-07-22T08:51:37.452Z,50
2018-07-22T08:52:39.463Z,50
2018-07-22T08:53:41.470Z,49
2018-07-22T08:54:43.481Z,50
2018-07-22T08:55:45.488Z,49
2018-07-22T08:56:47.488Z,49
2018-07-22T08:57:49.491Z,48
2018-07-22T08:58:51.821Z,47
2018-07-22T08:59:53.796Z,47
2018-07-22T09:00:55.810Z,48
2018-07-22T09:01:58.384Z,48
2018-07-22T09:03:00.384Z,48
2018-07-22T09:04:02.407Z,47
2018-07-22T09:05:04.410Z,47
2018-07-22T09:06:06.704Z,47
2018-07-22T09:07:08.702Z,47
2018-07-22T09:08:11.069Z,46
2018-07-22T09:09:13.290Z,46
2018-07-22T09:10:15.678Z,46
2018-07-22T09:11:17.693Z,46
2018-07-22T09:12:19.971Z,45
2018-07-22T09:13:21.983Z,46
2018-07-22T09:14:23.996Z,46
2018-07-22T09:15:26.014Z,46
2018-07-22T09:16:28.024Z,45
2018-07-22T09:17:30.318Z,45
2018-07-22T09:18:32.327Z,45
2018-07-22T09:19:34.333Z,46
2018-07-22T09:20:36.356Z,46
2018-07-22T09:21:38.738Z,47
2018-07-22T09:22:41.026Z,46
2018-07-22T09:23:43.049Z,44
2018-07-22T09:24:45.057Z,44
2018-07-22T09:25:47.362Z,43
2018-07-22T09:26:49.761Z,45
2018-07-22T09:27:51.762Z,46
2018-07-22T09:28:53.779Z,46
2018-07-22T09:29:55.796Z,44
2018-07-22T09:30:57.811Z,43
2018-07-22T09:31:59.813Z,44
2018-07-22T09:33:01.832Z,44
2018-07-22T09:34:03.836Z,43
2018-07-22T09:35:05.848Z,42
2018-07-22T09:36:07.947Z,43
2018-07-22T09:37:09.878Z,42
2018-07-22T09:38:11.886Z,42
2018-07-22T09:39:13.906Z,42
2018-07-22T09:40:15.908Z,41
2018-07-22T09:41:17.930Z,41
2018-07-22T09:42:19.938Z,42
2018-07-22T09:43:21.943Z,42
2018-07-22T09:44:23.964Z,41
2018-07-22T09:45:25.967Z,42
2018-07-22T09:46:27.984Z,43
2018-07-22T09:47:30.298Z,42
2018-07-22T09:48:32.316Z,42
2018-07-22T09:49:34.324Z,43
2018-07-22T09:50:36.339Z,43
2018-07-22T09:51:38.355Z,42
2018-07-22T09:52:40.645Z,44
2018-07-22T09:53:43.423Z,45
2018-07-22T09:54:45.422Z,44
2018-07-22T09:55:47.705Z,42
2018-07-22T09:56:50.110Z,42
2018-07-22T09:57:52.401Z,43
2018-07-22T09:58:54.408Z,41
2018-07-22T09:59:56.701Z,41
2018-07-22T10:00:58.708Z,42
2018-07-22T10:02:00.724Z,40
2018-07-22T10:03:02.750Z,41
2018-07-22T10:04:04.765Z,40
2018-07-22T10:05:07.335Z,41
2018-07-22T10:06:09.362Z,39
2018-07-22T10:07:11.375Z,39
2018-07-22T10:08:13.972Z,39
2018-07-22T10:09:15.988Z,40
2018-07-22T10:10:18.762Z,40
2018-07-22T10:11:20.780Z,40
2018-07-22T10:12:22.793Z,42
2018-07-22T10:13:25.105Z,41
2018-07-22T10:14:27.850Z,40
2018-07-22T10:15:29.845Z,39
2018-07-22T10:16:31.866Z,39
2018-07-22T10:17:34.220Z,40
2018-07-22T10:18:36.186Z,40
2018-07-22T10:19:38.190Z,42
2018-07-22T10:20:40.589Z,40
2018-07-22T10:21:43.009Z,39
2018-07-22T10:22:45.322Z,41
2018-07-22T10:23:47.329Z,41
2018-07-22T10:24:49.342Z,41
2018-07-22T10:25:51.360Z,41
2018-07-22T10:26:53.365Z,42
2018-07-22T10:27:55.383Z,42
2018-07-22T10:28:57.404Z,41
2018-07-22T10:29:59.411Z,41
2018-07-22T10:31:01.427Z,42
2018-07-22T10:32:03.446Z,42
2018-07-22T10:33:05.846Z,43
2018-07-22T10:34:07.869Z,43
2018-07-22T10:35:09.878Z,42
2018-07-22T10:36:11.888Z,42
2018-07-22T10:37:13.899Z,43
2018-07-22T10:38:17.145Z,43
2018-07-22T10:39:19.730Z,42
2018-07-22T10:40:21.752Z,42
2018-07-22T10:41:23.771Z,43
2018-07-22T10:42:25.781Z,42
2018-07-22T10:43:27.808Z,42
2018-07-22T10:44:29.817Z,42
2018-07-22T10:45:31.841Z,41
2018-07-22T10:46:33.851Z,42
2018-07-22T10:47:35.880Z,41
2018-07-22T10:48:38.272Z,41
2018-07-22T10:49:40.283Z,40
2018-07-22T10:50:42.592Z,40
2018-07-22T10:51:44.602Z,40
2018-07-22T10:52:46.890Z,40
2018-07-22T10:53:48.901Z,40
2018-07-22T10:54:50.916Z,41
2018-07-22T10:55:52.942Z,40
2018-07-22T10:56:54.951Z,41
2018-07-22T10:57:56.967Z,40
2018-07-22T10:58:58.987Z,41
2018-07-22T11:00:00.991Z,41
2018-07-22T11:01:03.011Z,40
2018-07-22T11:02:05.031Z,40
2018-07-22T11:03:07.320Z,40
2018-07-22T11:04:09.344Z,40
2018-07-22T11:05:11.360Z,39
2018-07-22T11:06:13.374Z,40
2018-07-22T11:07:15.403Z,39
2018-07-22T11:08:17.693Z,40
2018-07-22T11:09:19.706Z,39
2018-07-22T11:10:21.720Z,40
2018-07-22T11:11:23.741Z,41
2018-07-22T11:12:25.745Z,41
2018-07-22T11:13:27.771Z,40
2018-07-22T11:14:29.862Z,41
2018-07-22T11:15:32.223Z,40
2018-07-22T11:16:34.251Z,41
2018-07-22T11:17:36.265Z,40
2018-07-22T11:18:38.288Z,38
2018-07-22T11:19:40.293Z,38
2018-07-22T11:20:42.322Z,40
2018-07-22T11:21:44.329Z,37
2018-07-22T11:22:46.344Z,37
2018-07-22T11:23:48.367Z,36
2018-07-22T11:24:50.754Z,36
2018-07-22T11:25:52.775Z,38
2018-07-22T11:26:54.794Z,35
2018-07-22T11:27:56.815Z,34
2018-07-22T11:28:59.190Z,34
2018-07-22T11:30:01.557Z,34
2018-07-22T11:31:03.849Z,32
2018-07-22T11:32:05.873Z,32
2018-07-22T11:33:07.880Z,32
2018-07-22T11:34:09.909Z,34
2018-07-22T11:35:11.928Z,32
2018-07-22T11:36:13.939Z,33
2018-07-22T11:37:15.964Z,33
2018-07-22T11:38:17.989Z,31
2018-07-22T11:39:20.004Z,32
2018-07-22T11:40:22.328Z,32
2018-07-22T11:41:24.340Z,34
2018-07-22T11:42:26.740Z,33
2018-07-22T11:43:28.755Z,33
2018-07-22T11:44:30.780Z,33
2018-07-22T11:45:32.787Z,34
2018-07-22T11:46:34.808Z,34
2018-07-22T11:47:36.828Z,33
2018-07-22T11:48:38.840Z,31
2018-07-22T11:49:40.875Z,33
2018-07-22T11:50:42.903Z,33
2018-07-22T11:51:45.579Z,32
2018-07-22T11:52:47.590Z,32
2018-07-22T11:53:49.621Z,33
2018-07-22T11:54:51.635Z,33
2018-07-22T11:55:54.036Z,33
2018-07-22T11:56:56.062Z,33
2018-07-22T11:57:58.078Z,34
2018-07-22T11:59:00.378Z,33
2018-07-22T12:00:03.031Z,34
2018-07-22T12:01:05.016Z,34
2018-07-22T12:02:07.030Z,33
2018-07-22T12:03:09.058Z,33
2018-07-22T12:04:11.080Z,35
2018-07-22T12:05:13.097Z,35
2018-07-22T12:06:15.137Z,33
2018-07-22T12:07:17.217Z,34
2018-07-22T12:08:19.804Z,34
2018-07-22T12:09:21.812Z,33
2018-07-22T12:10:23.841Z,33
2018-07-22T12:11:25.866Z,33
2018-07-22T12:12:28.200Z,33
2018-07-22T12:13:30.221Z,32
2018-07-22T12:14:32.238Z,33
2018-07-22T12:15:34.248Z,33
2018-07-22T12:16:36.643Z,33
2018-07-22T12:17:38.674Z,34
2018-07-22T12:18:40.683Z,35
2018-07-22T12:19:42.710Z,32
2018-07-22T12:20:44.731Z,32
2018-07-22T12:21:46.745Z,32
2018-07-22T12:22:48.776Z,34
2018-07-22T12:23:50.793Z,33
2018-07-22T12:24:52.821Z,33
2018-07-22T12:25:54.829Z,32
2018-07-22T12:26:56.859Z,32
2018-07-22T12:27:58.911Z,34
2018-07-22T12:29:00.898Z,34
2018-07-22T12:30:03.222Z,34
2018-07-22T12:31:05.232Z,34
2018-07-22T12:32:07.540Z,34
2018-07-22T12:33:09.557Z,33
2018-07-22T12:34:12.011Z,35
2018-07-22T12:35:14.033Z,33
2018-07-22T12:36:16.057Z,34
2018-07-22T12:37:18.364Z,32
2018-07-22T12:38:20.381Z,32
2018-07-22T12:39:22.477Z,32
2018-07-22T12:40:24.539Z,33
2018-07-22T12:41:26.506Z,32
2018-07-22T12:42:28.531Z,31
2018-07-22T12:43:30.543Z,30
2018-07-22T12:44:32.553Z,31
2018-07-22T12:45:34.872Z,31
2018-07-22T12:46:37.027Z,31
2018-07-22T12:47:38.908Z,31
2018-07-22T12:48:41.212Z,31
2018-07-22T12:49:43.237Z,33
2018-07-22T12:50:45.909Z,33
2018-07-22T12:51:47.939Z,31
2018-07-22T12:52:50.255Z,32
2018-07-22T12:53:52.306Z,30
2018-07-22T12:54:54.300Z,31
2018-07-22T12:55:56.307Z,31
2018-07-22T12:56:58.330Z,32
2018-07-22T12:58:00.343Z,31
2018-07-22T12:59:02.654Z,31
2018-07-22T13:00:04.665Z,32
2018-07-22T13:01:07.250Z,31
2018-07-22T13:02:09.272Z,31
2018-07-22T13:03:11.288Z,31
2018-07-22T13:04:13.327Z,31
2018-07-22T13:05:15.340Z,32
2018-07-22T13:06:17.356Z,31
2018-07-22T13:07:19.380Z,32
2018-07-22T13:08:21.688Z,31
2018-07-22T13:09:24.115Z,31
2018-07-22T13:10:26.569Z,29
2018-07-22T13:11:28.597Z,30
2018-07-22T13:12:30.607Z,31
2018-07-22T13:13:32.633Z,30
2018-07-22T13:14:34.663Z,31
2018-07-22T13:15:36.946Z,32
2018-07-22T13:16:38.968Z,32
2018-07-22T13:17:40.999Z,33
2018-07-22T13:18:43.015Z,32
2018-07-22T13:19:45.042Z,31
2018-07-22T13:20:47.352Z,32
2018-07-22T13:21:49.368Z,31
2018-07-22T13:22:51.381Z,32
2018-07-22T13:23:53.394Z,31
2018-07-22T13:24:55.713Z,31
2018-07-22T13:25:58.112Z,31
2018-07-22T13:27:00.136Z,29
2018-07-22T13:28:02.162Z,30
2018-07-22T13:29:04.171Z,30
2018-07-22T13:30:06.197Z,30
2018-07-22T13:31:08.495Z,30
2018-07-22T13:32:10.532Z,30
2018-07-22T13:33:12.826Z,32
2018-07-22T13:34:14.858Z,31
2018-07-22T13:35:16.892Z,31
2018-07-22T13:36:19.188Z,31
2018-07-22T13:37:21.614Z,32
2018-07-22T13:38:23.998Z,32
2018-07-22T13:39:25.931Z,32
2018-07-22T13:40:27.950Z,33
2018-07-22T13:41:29.985Z,32
2018-07-22T13:42:32.000Z,33
2018-07-22T13:43:34.039Z,33
2018-07-22T13:44:36.051Z,32
2018-07-22T13:45:38.061Z,32
2018-07-22T13:46:40.089Z,33
2018-07-22T13:47:42.117Z,33
2018-07-22T13:48:44.127Z,36
2018-07-22T13:49:46.155Z,34
2018-07-22T13:50:48.180Z,35
2018-07-22T13:51:50.201Z,35
2018-07-22T13:52:52.611Z,34
2018-07-22T13:53:54.624Z,35
2018-07-22T13:54:56.642Z,34
2018-07-22T13:55:58.660Z,34
2018-07-22T13:57:00.694Z,32
2018-07-22T13:58:03.379Z,33
2018-07-22T13:59:05.408Z,33
2018-07-22T14:00:07.431Z,34
2018-07-22T14:01:09.455Z,33
2018-07-22T14:02:11.468Z,33
2018-07-22T14:03:13.493Z,34
2018-07-22T14:04:15.506Z,33
2018-07-22T14:05:17.930Z,34
2018-07-22T14:06:19.932Z,33
2018-07-22T14:07:22.004Z,34
2018-07-22T14:08:23.981Z,32
2018-07-22T14:09:26.594Z,32
2018-07-22T14:10:28.623Z,32
2018-07-22T14:11:30.640Z,31
2018-07-22T14:12:32.655Z,33
2018-07-22T14:13:34.674Z,33
2018-07-22T14:14:36.707Z,32
2018-07-22T14:15:39.155Z,33
2018-07-22T14:16:41.095Z,33
2018-07-22T14:17:43.167Z,34
2018-07-22T14:18:45.481Z,35
2018-07-22T14:19:47.510Z,35
2018-07-22T14:20:49.914Z,34
2018-07-22T14:21:52.200Z,35
2018-07-22T14:22:54.611Z,36
2018-07-22T14:23:56.633Z,36
2018-07-22T14:24:59.232Z,35
2018-07-22T14:26:01.216Z,35
2018-07-22T14:27:03.232Z,35
2018-07-22T14:28:05.304Z,36
2018-07-22T14:29:07.641Z,36
2018-07-22T14:30:09.672Z,35
2018-07-22T14:31:11.982Z,36
2018-07-22T14:32:14.011Z,37
2018-07-22T14:33:16.028Z,36
2018-07-22T14:34:18.425Z,36
2018-07-22T14:35:20.455Z,36
2018-07-22T14:36:22.763Z,36
2018-07-22T14:37:24.794Z,37
2018-07-22T14:38:27.188Z,37
2018-07-22T14:39:29.206Z,39
2018-07-22T14:40:31.230Z,40
2018-07-22T14:41:33.639Z,40
2018-07-22T14:42:35.654Z,41
2018-07-22T14:43:37.681Z,41
2018-07-22T14:44:39.693Z,42
2018-07-22T14:45:41.705Z,42